sensor_id;sensor_type;location;lat;lon;timestamp;pressure;altitude;pressure_sealevel;temperature;humidity
59043;BME280;44826;51.596;5.624;2023-06-14T00:01:00;101309.63;;;19.34;43.94
59043;BME280;44826;51.596;5.624;2023-06-14T00:03:28;101305.53;;;19.28;43.63
59043;BME280;44826;51.596;5.624;2023-06-14T00:05:53;101311.84;;;19.25;43.81
59043;BME280;44826;51.596;5.624;2023-06-14T00:08:19;101312.00;;;19.22;43.51
59043;BME280;44826;51.596;5.624;2023-06-14T00:10:46;101312.44;;;19.15;43.52
59043;BME280;44826;51.596;5.624;2023-06-14T00:13:11;101305.53;;;19.12;42.92
59043;BME280;44826;51.596;5.624;2023-06-14T00:15:37;101310.97;;;19.09;42.87
59043;BME280;44826;51.596;5.624;2023-06-14T00:18:03;101312.84;;;19.07;43.27
59043;BME280;44826;51.596;5.624;2023-06-14T00:20:30;101316.56;;;19.03;42.93
59043;BME280;44826;51.596;5.624;2023-06-14T00:23:01;101316.84;;;18.98;43.40
59043;BME280;44826;51.596;5.624;2023-06-14T00:25:26;101324.91;;;18.95;42.84
59043;BME280;44826;51.596;5.624;2023-06-14T00:27:53;101323.31;;;18.91;43.14
59043;BME280;44826;51.596;5.624;2023-06-14T00:30:18;101320.94;;;18.86;43.00
59043;BME280;44826;51.596;5.624;2023-06-14T00:32:44;101321.09;;;18.83;42.77
59043;BME280;44826;51.596;5.624;2023-06-14T00:35:10;101323.16;;;18.78;42.98
59043;BME280;44826;51.596;5.624;2023-06-14T00:37:36;101323.28;;;18.75;43.51
59043;BME280;44826;51.596;5.624;2023-06-14T00:40:02;101323.53;;;18.70;44.72
59043;BME280;44826;51.596;5.624;2023-06-14T00:42:28;101326.50;;;18.64;44.24
59043;BME280;44826;51.596;5.624;2023-06-14T00:44:54;101326.50;;;18.64;43.95
59043;BME280;44826;51.596;5.624;2023-06-14T00:47:20;101334.63;;;18.59;43.71
59043;BME280;44826;51.596;5.624;2023-06-14T00:49:46;101330.59;;;18.52;44.11
59043;BME280;44826;51.596;5.624;2023-06-14T00:52:12;101332.63;;;18.47;44.11
59043;BME280;44826;51.596;5.624;2023-06-14T00:54:40;101330.16;;;18.44;43.78
59043;BME280;44826;51.596;5.624;2023-06-14T00:57:06;101326.81;;;18.40;44.38
59043;BME280;44826;51.596;5.624;2023-06-14T00:59:32;101327.22;;;18.32;42.90
59043;BME280;44826;51.596;5.624;2023-06-14T01:01:58;101335.25;;;18.29;44.34
59043;BME280;44826;51.596;5.624;2023-06-14T01:04:23;101339.84;;;18.26;43.84
59043;BME280;44826;51.596;5.624;2023-06-14T01:07:28;101332.09;;;18.23;43.29
59043;BME280;44826;51.596;5.624;2023-06-14T01:15:15;101334.41;;;18.11;45.86
59043;BME280;44826;51.596;5.624;2023-06-14T01:17:41;101332.72;;;18.10;45.43
59043;BME280;44826;51.596;5.624;2023-06-14T01:20:11;101331.94;;;18.08;44.02
59043;BME280;44826;51.596;5.624;2023-06-14T01:22:52;101330.91;;;18.11;42.50
59043;BME280;44826;51.596;5.624;2023-06-14T01:25:18;101334.66;;;18.07;43.59
59043;BME280;44826;51.596;5.624;2023-06-14T01:27:47;101335.72;;;18.02;44.34
59043;BME280;44826;51.596;5.624;2023-06-14T01:30:13;101337.47;;;18.02;46.35
59043;BME280;44826;51.596;5.624;2023-06-14T01:32:39;101334.16;;;17.98;46.92
59043;BME280;44826;51.596;5.624;2023-06-14T01:35:05;101331.03;;;17.90;46.05
59043;BME280;44826;51.596;5.624;2023-06-14T01:37:31;101333.88;;;17.85;45.41
59043;BME280;44826;51.596;5.624;2023-06-14T01:39:56;101335.88;;;17.80;47.16
59043;BME280;44826;51.596;5.624;2023-06-14T01:42:22;101334.31;;;17.76;45.80
59043;BME280;44826;51.596;5.624;2023-06-14T01:44:49;101337.97;;;17.73;49.29
59043;BME280;44826;51.596;5.624;2023-06-14T01:47:15;101338.16;;;17.69;46.48
59043;BME280;44826;51.596;5.624;2023-06-14T01:49:40;101341.81;;;17.66;46.11
59043;BME280;44826;51.596;5.624;2023-06-14T01:52:06;101332.34;;;17.62;45.25
59043;BME280;44826;51.596;5.624;2023-06-14T01:54:35;101339.47;;;17.60;47.33
59043;BME280;44826;51.596;5.624;2023-06-14T01:57:03;101337.91;;;17.56;46.70
59043;BME280;44826;51.596;5.624;2023-06-14T01:59:28;101337.13;;;17.54;44.82
59043;BME280;44826;51.596;5.624;2023-06-14T02:01:53;101335.47;;;17.51;46.53
59043;BME280;44826;51.596;5.624;2023-06-14T02:04:18;101337.19;;;17.52;46.31
59043;BME280;44826;51.596;5.624;2023-06-14T02:06:44;101333.72;;;17.52;45.69
59043;BME280;44826;51.596;5.624;2023-06-14T02:09:09;101338.19;;;17.50;45.75
59043;BME280;44826;51.596;5.624;2023-06-14T02:11:34;101331.38;;;17.45;48.25
59043;BME280;44826;51.596;5.624;2023-06-14T02:14:00;101334.22;;;17.41;46.40
59043;BME280;44826;51.596;5.624;2023-06-14T02:16:26;101333.53;;;17.37;46.27
59043;BME280;44826;51.596;5.624;2023-06-14T02:18:53;101335.41;;;17.34;47.63
59043;BME280;44826;51.596;5.624;2023-06-14T02:21:18;101336.50;;;17.29;48.16
59043;BME280;44826;51.596;5.624;2023-06-14T02:23:44;101334.84;;;17.27;46.80
59043;BME280;44826;51.596;5.624;2023-06-14T02:26:09;101332.53;;;17.21;46.39
59043;BME280;44826;51.596;5.624;2023-06-14T02:28:34;101337.78;;;17.21;47.11
59043;BME280;44826;51.596;5.624;2023-06-14T02:31:00;101337.91;;;17.18;48.89
59043;BME280;44826;51.596;5.624;2023-06-14T02:33:26;101339.75;;;17.16;47.07
59043;BME280;44826;51.596;5.624;2023-06-14T02:35:51;101344.31;;;17.12;46.71
59043;BME280;44826;51.596;5.624;2023-06-14T02:38:18;101340.03;;;17.09;47.99
59043;BME280;44826;51.596;5.624;2023-06-14T02:40:43;101345.38;;;17.08;46.94
59043;BME280;44826;51.596;5.624;2023-06-14T02:43:08;101347.16;;;17.07;48.85
59043;BME280;44826;51.596;5.624;2023-06-14T02:45:33;101343.75;;;17.05;49.48
59043;BME280;44826;51.596;5.624;2023-06-14T02:47:59;101348.25;;;17.02;47.68
59043;BME280;44826;51.596;5.624;2023-06-14T02:50:25;101345.72;;;17.00;50.23
59043;BME280;44826;51.596;5.624;2023-06-14T02:52:50;101353.69;;;16.98;48.08
59043;BME280;44826;51.596;5.624;2023-06-14T02:55:15;101342.44;;;16.95;46.09
59043;BME280;44826;51.596;5.624;2023-06-14T02:57:41;101348.47;;;16.97;45.99
59043;BME280;44826;51.596;5.624;2023-06-14T03:00:06;101352.06;;;16.94;46.79
59043;BME280;44826;51.596;5.624;2023-06-14T03:02:35;101353.03;;;16.92;48.33
59043;BME280;44826;51.596;5.624;2023-06-14T03:05:00;101346.22;;;16.88;48.18
59043;BME280;44826;51.596;5.624;2023-06-14T03:07:27;101355.97;;;16.86;46.92
59043;BME280;44826;51.596;5.624;2023-06-14T03:09:52;101364.75;;;16.84;49.22
59043;BME280;44826;51.596;5.624;2023-06-14T03:12:18;101356.16;;;16.81;51.21
59043;BME280;44826;51.596;5.624;2023-06-14T03:14:43;101356.34;;;16.76;50.32
59043;BME280;44826;51.596;5.624;2023-06-14T03:17:11;101359.97;;;16.74;50.43
59043;BME280;44826;51.596;5.624;2023-06-14T03:19:37;101360.97;;;16.71;49.22
59043;BME280;44826;51.596;5.624;2023-06-14T03:22:02;101358.47;;;16.68;50.44
59043;BME280;44826;51.596;5.624;2023-06-14T03:24:28;101364.63;;;16.67;49.14
59043;BME280;44826;51.596;5.624;2023-06-14T03:26:54;101363.06;;;16.63;48.30
59043;BME280;44826;51.596;5.624;2023-06-14T03:29:19;101369.44;;;16.57;49.43
59043;BME280;44826;51.596;5.624;2023-06-14T03:32:02;101371.97;;;16.59;48.96
59043;BME280;44826;51.596;5.624;2023-06-14T03:34:28;101368.63;;;16.55;52.31
59043;BME280;44826;51.596;5.624;2023-06-14T03:36:53;101363.47;;;16.53;49.41
59043;BME280;44826;51.596;5.624;2023-06-14T03:39:19;101375.81;;;16.51;49.46
59043;BME280;44826;51.596;5.624;2023-06-14T03:41:45;101369.63;;;16.52;51.37
59043;BME280;44826;51.596;5.624;2023-06-14T03:44:10;101373.09;;;16.53;49.87
59043;BME280;44826;51.596;5.624;2023-06-14T03:46:35;101377.50;;;16.52;49.14
59043;BME280;44826;51.596;5.624;2023-06-14T03:49:00;101378.31;;;16.54;49.71
59043;BME280;44826;51.596;5.624;2023-06-14T03:51:28;101385.31;;;16.54;50.70
59043;BME280;44826;51.596;5.624;2023-06-14T03:53:53;101381.91;;;16.52;49.32
59043;BME280;44826;51.596;5.624;2023-06-14T03:56:19;101387.22;;;16.50;49.43
59043;BME280;44826;51.596;5.624;2023-06-14T03:58:44;101388.03;;;16.52;48.26
59043;BME280;44826;51.596;5.624;2023-06-14T04:01:10;101387.16;;;16.52;48.47
59043;BME280;44826;51.596;5.624;2023-06-14T04:03:37;101382.75;;;16.52;48.26
59043;BME280;44826;51.596;5.624;2023-06-14T04:06:03;101387.91;;;16.56;47.99
59043;BME280;44826;51.596;5.624;2023-06-14T04:08:29;101388.81;;;16.54;48.04
59043;BME280;44826;51.596;5.624;2023-06-14T04:10:55;101389.59;;;16.57;48.29
59043;BME280;44826;51.596;5.624;2023-06-14T04:13:20;101393.00;;;16.59;47.82
59043;BME280;44826;51.596;5.624;2023-06-14T04:15:45;101393.78;;;16.61;47.40
59043;BME280;44826;51.596;5.624;2023-06-14T04:18:12;101396.28;;;16.64;47.80
59043;BME280;44826;51.596;5.624;2023-06-14T04:20:38;101394.44;;;16.66;48.69
59043;BME280;44826;51.596;5.624;2023-06-14T04:23:14;101397.00;;;16.67;47.59
59043;BME280;44826;51.596;5.624;2023-06-14T04:25:40;101396.03;;;16.70;47.47
59043;BME280;44826;51.596;5.624;2023-06-14T04:28:06;101391.56;;;16.72;47.61
59043;BME280;44826;51.596;5.624;2023-06-14T04:30:34;101395.03;;;16.73;47.76
59043;BME280;44826;51.596;5.624;2023-06-14T04:33:00;101390.66;;;16.73;47.87
59043;BME280;44826;51.596;5.624;2023-06-14T04:35:26;101398.38;;;16.76;47.88
59043;BME280;44826;51.596;5.624;2023-06-14T04:37:52;101402.59;;;16.80;47.89
59043;BME280;44826;51.596;5.624;2023-06-14T04:40:18;101409.44;;;16.84;47.90
59043;BME280;44826;51.596;5.624;2023-06-14T04:42:43;101403.19;;;16.87;48.08
59043;BME280;44826;51.596;5.624;2023-06-14T04:45:10;101405.75;;;16.89;48.11
59043;BME280;44826;51.596;5.624;2023-06-14T04:47:36;101410.94;;;16.90;47.92
59043;BME280;44826;51.596;5.624;2023-06-14T04:50:02;101409.03;;;16.94;48.38
59043;BME280;44826;51.596;5.624;2023-06-14T04:52:28;101409.78;;;16.97;48.32
59043;BME280;44826;51.596;5.624;2023-06-14T04:54:55;101410.50;;;17.01;49.86
59043;BME280;44826;51.596;5.624;2023-06-14T04:57:21;101413.84;;;17.05;48.67
59043;BME280;44826;51.596;5.624;2023-06-14T04:59:48;101413.59;;;17.11;49.85
59043;BME280;44826;51.596;5.624;2023-06-14T05:02:13;101416.09;;;17.14;48.82
59043;BME280;44826;51.596;5.624;2023-06-14T05:04:39;101421.97;;;17.19;49.22
59043;BME280;44826;51.596;5.624;2023-06-14T05:07:08;101427.19;;;17.21;48.67
59043;BME280;44826;51.596;5.624;2023-06-14T05:09:37;101419.91;;;17.26;48.58
59043;BME280;44826;51.596;5.624;2023-06-14T05:12:03;101421.50;;;17.30;48.48
59043;BME280;44826;51.596;5.624;2023-06-14T05:14:28;101421.22;;;17.36;48.68
59043;BME280;44826;51.596;5.624;2023-06-14T05:16:54;101420.09;;;17.42;48.48
59043;BME280;44826;51.596;5.624;2023-06-14T05:19:20;101433.03;;;17.47;47.76
59043;BME280;44826;51.596;5.624;2023-06-14T05:21:46;101431.06;;;17.52;48.28
59043;BME280;44826;51.596;5.624;2023-06-14T05:24:12;101430.78;;;17.58;48.12
59043;BME280;44826;51.596;5.624;2023-06-14T05:26:37;101432.28;;;17.64;47.48
59043;BME280;44826;51.596;5.624;2023-06-14T05:29:03;101426.72;;;17.70;48.16
59043;BME280;44826;51.596;5.624;2023-06-14T05:31:28;101434.31;;;17.76;47.60
59043;BME280;44826;51.596;5.624;2023-06-14T05:33:54;101435.94;;;17.79;47.82
59043;BME280;44826;51.596;5.624;2023-06-14T05:36:20;101439.88;;;17.89;47.49
59043;BME280;44826;51.596;5.624;2023-06-14T05:38:46;101436.19;;;17.93;47.76
59043;BME280;44826;51.596;5.624;2023-06-14T05:41:12;101445.59;;;17.99;46.82
59043;BME280;44826;51.596;5.624;2023-06-14T05:43:37;101441.72;;;18.06;47.12
59043;BME280;44826;51.596;5.624;2023-06-14T05:46:02;101452.03;;;18.11;47.57
59043;BME280;44826;51.596;5.624;2023-06-14T05:48:28;101450.81;;;18.18;46.65
59043;BME280;44826;51.596;5.624;2023-06-14T05:50:54;101454.94;;;18.24;46.30
59043;BME280;44826;51.596;5.624;2023-06-14T05:53:19;101460.94;;;18.27;46.58
59043;BME280;44826;51.596;5.624;2023-06-14T05:55:44;101464.19;;;18.32;45.66
59043;BME280;44826;51.596;5.624;2023-06-14T05:58:10;101460.38;;;18.38;46.10
59043;BME280;44826;51.596;5.624;2023-06-14T06:00:35;101461.91;;;18.44;45.41
59043;BME280;44826;51.596;5.624;2023-06-14T06:03:01;101469.47;;;18.50;46.10
59043;BME280;44826;51.596;5.624;2023-06-14T06:05:26;101468.16;;;18.59;47.12
59043;BME280;44826;51.596;5.624;2023-06-14T06:07:51;101460.81;;;18.65;50.06
59043;BME280;44826;51.596;5.624;2023-06-14T06:10:17;101464.91;;;18.71;46.11
59043;BME280;44826;51.596;5.624;2023-06-14T06:12:42;101467.25;;;18.77;47.29
59043;BME280;44826;51.596;5.624;2023-06-14T06:15:08;101467.78;;;18.84;46.76
59043;BME280;44826;51.596;5.624;2023-06-14T06:17:37;101468.31;;;18.91;45.37
59043;BME280;44826;51.596;5.624;2023-06-14T06:20:03;101468.88;;;18.98;46.27
59043;BME280;44826;51.596;5.624;2023-06-14T06:22:28;101471.22;;;19.04;47.19
59043;BME280;44826;51.596;5.624;2023-06-14T06:24:54;101472.69;;;19.09;46.46
59043;BME280;44826;51.596;5.624;2023-06-14T06:27:19;101475.06;;;19.14;48.16
59043;BME280;44826;51.596;5.624;2023-06-14T06:29:45;101475.56;;;19.22;48.16
59043;BME280;44826;51.596;5.624;2023-06-14T06:32:10;101476.94;;;19.30;46.58
59043;BME280;44826;51.596;5.624;2023-06-14T06:34:36;101484.50;;;19.36;46.08
59043;BME280;44826;51.596;5.624;2023-06-14T06:37:02;101481.56;;;19.42;45.11
59043;BME280;44826;51.596;5.624;2023-06-14T06:39:27;101489.38;;;19.44;44.03
59043;BME280;44826;51.596;5.624;2023-06-14T06:41:52;101487.44;;;19.47;44.69
59043;BME280;44826;51.596;5.624;2023-06-14T06:44:18;101492.41;;;19.53;47.16
59043;BME280;44826;51.596;5.624;2023-06-14T06:46:43;101494.72;;;19.60;47.23
59043;BME280;44826;51.596;5.624;2023-06-14T06:49:09;101493.53;;;19.65;44.51
59043;BME280;44826;51.596;5.624;2023-06-14T06:51:37;101503.78;;;19.71;48.67
59043;BME280;44826;51.596;5.624;2023-06-14T06:54:02;101506.94;;;19.78;47.24
59043;BME280;44826;51.596;5.624;2023-06-14T06:56:27;101503.94;;;19.84;47.38
59043;BME280;44826;51.596;5.624;2023-06-14T06:58:56;101500.13;;;19.90;48.44
59043;BME280;44826;51.596;5.624;2023-06-14T07:01:21;101508.75;;;19.94;44.07
59043;BME280;44826;51.596;5.624;2023-06-14T07:03:47;101504.06;;;19.99;46.22
59043;BME280;44826;51.596;5.624;2023-06-14T07:06:13;101507.25;;;20.06;46.75
59043;BME280;44826;51.596;5.624;2023-06-14T07:08:38;101507.97;;;20.08;44.05
59043;BME280;44826;51.596;5.624;2023-06-14T07:11:04;101513.03;;;20.12;44.27
59043;BME280;44826;51.596;5.624;2023-06-14T07:13:30;101519.75;;;20.18;46.14
59043;BME280;44826;51.596;5.624;2023-06-14T07:15:58;101523.84;;;20.24;44.84
59043;BME280;44826;51.596;5.624;2023-06-14T07:18:24;101523.50;;;20.30;45.46
59043;BME280;44826;51.596;5.624;2023-06-14T07:20:49;101516.25;;;20.34;45.41
59043;BME280;44826;51.596;5.624;2023-06-14T07:23:15;101517.69;;;20.39;45.37
59043;BME280;44826;51.596;5.624;2023-06-14T07:25:40;101521.78;;;20.45;44.93
59043;BME280;44826;51.596;5.624;2023-06-14T07:28:05;101522.38;;;20.50;43.10
59043;BME280;44826;51.596;5.624;2023-06-14T07:30:31;101523.81;;;20.56;43.94
59043;BME280;44826;51.596;5.624;2023-06-14T07:32:56;101517.41;;;20.60;42.57
59043;BME280;44826;51.596;5.624;2023-06-14T07:35:22;101525.94;;;20.65;42.91
59043;BME280;44826;51.596;5.624;2023-06-14T07:37:47;101525.56;;;20.71;43.79
59043;BME280;44826;51.596;5.624;2023-06-14T07:40:13;101528.91;;;20.75;41.69
59043;BME280;44826;51.596;5.624;2023-06-14T07:42:39;101534.72;;;20.82;43.95
59043;BME280;44826;51.596;5.624;2023-06-14T07:45:05;101531.88;;;20.85;40.68
59043;BME280;44826;51.596;5.624;2023-06-14T07:47:31;101531.69;;;20.88;43.88
59043;BME280;44826;51.596;5.624;2023-06-14T07:49:56;101545.53;;;20.93;42.59
59043;BME280;44826;51.596;5.624;2023-06-14T07:52:21;101541.75;;;20.97;42.28
59043;BME280;44826;51.596;5.624;2023-06-14T07:54:47;101548.53;;;21.01;41.63
59043;BME280;44826;51.596;5.624;2023-06-14T07:57:12;101548.38;;;21.04;40.99
59043;BME280;44826;51.596;5.624;2023-06-14T07:59:37;101555.19;;;21.08;43.77
59043;BME280;44826;51.596;5.624;2023-06-14T08:02:03;101557.75;;;21.10;40.21
59043;BME280;44826;51.596;5.624;2023-06-14T08:04:29;101548.69;;;21.14;40.38
59043;BME280;44826;51.596;5.624;2023-06-14T08:06:54;101557.22;;;21.19;43.39
59043;BME280;44826;51.596;5.624;2023-06-14T08:09:19;101555.16;;;21.25;41.57
59043;BME280;44826;51.596;5.624;2023-06-14T08:11:45;101559.22;;;21.30;43.15
59043;BME280;44826;51.596;5.624;2023-06-14T08:14:10;101560.53;;;21.37;42.00
59043;BME280;44826;51.596;5.624;2023-06-14T08:16:36;101551.47;;;21.42;40.71
59043;BME280;44826;51.596;5.624;2023-06-14T08:19:02;101558.28;;;21.46;41.27
59043;BME280;44826;51.596;5.624;2023-06-14T08:21:28;101555.47;;;21.49;38.54
59043;BME280;44826;51.596;5.624;2023-06-14T08:23:54;101554.31;;;21.53;38.86
59043;BME280;44826;51.596;5.624;2023-06-14T08:26:20;101555.84;;;21.57;39.11
59043;BME280;44826;51.596;5.624;2023-06-14T08:28:46;101554.63;;;21.63;40.67
59043;BME280;44826;51.596;5.624;2023-06-14T08:31:11;101558.91;;;21.65;38.11
59043;BME280;44826;51.596;5.624;2023-06-14T08:33:36;101555.09;;;21.70;39.98
59043;BME280;44826;51.596;5.624;2023-06-14T08:36:02;101553.44;;;21.68;37.33
59043;BME280;44826;51.596;5.624;2023-06-14T08:38:27;101556.72;;;21.72;40.42
59043;BME280;44826;51.596;5.624;2023-06-14T08:40:57;101552.00;;;21.77;37.72
59043;BME280;44826;51.596;5.624;2023-06-14T08:43:23;101552.66;;;21.81;35.73
59043;BME280;44826;51.596;5.624;2023-06-14T08:45:48;101551.59;;;21.83;35.86
59043;BME280;44826;51.596;5.624;2023-06-14T08:48:17;101550.59;;;21.86;38.20
59043;BME280;44826;51.596;5.624;2023-06-14T08:50:46;101546.97;;;21.87;35.56
59043;BME280;44826;51.596;5.624;2023-06-14T08:53:14;101558.25;;;21.91;35.37
59043;BME280;44826;51.596;5.624;2023-06-14T08:55:45;101553.59;;;21.94;35.28
59043;BME280;44826;51.596;5.624;2023-06-14T08:58:10;101546.22;;;22.00;34.30
59043;BME280;44826;51.596;5.624;2023-06-14T09:00:39;101555.47;;;22.07;33.90
59043;BME280;44826;51.596;5.624;2023-06-14T09:03:06;101548.28;;;22.09;34.42
59043;BME280;44826;51.596;5.624;2023-06-14T09:05:38;101554.13;;;22.14;36.83
59043;BME280;44826;51.596;5.624;2023-06-14T09:08:04;101549.66;;;22.14;35.82
59043;BME280;44826;51.596;5.624;2023-06-14T09:10:31;101556.78;;;22.14;34.96
59043;BME280;44826;51.596;5.624;2023-06-14T09:12:58;101554.13;;;22.14;34.81
59043;BME280;44826;51.596;5.624;2023-06-14T09:15:25;101561.72;;;22.20;34.32
59043;BME280;44826;51.596;5.624;2023-06-14T09:17:51;101562.25;;;22.25;32.16
59043;BME280;44826;51.596;5.624;2023-06-14T09:20:16;101563.75;;;22.29;36.11
59043;BME280;44826;51.596;5.624;2023-06-14T09:22:44;101565.28;;;22.34;32.57
59043;BME280;44826;51.596;5.624;2023-06-14T09:25:09;101557.84;;;22.39;33.71
59043;BME280;44826;51.596;5.624;2023-06-14T09:27:34;101563.66;;;22.46;33.53
59043;BME280;44826;51.596;5.624;2023-06-14T09:30:02;101557.50;;;22.45;32.77
59043;BME280;44826;51.596;5.624;2023-06-14T09:32:27;101554.09;;;22.43;35.30
59043;BME280;44826;51.596;5.624;2023-06-14T09:34:53;101556.66;;;22.45;32.46
59043;BME280;44826;51.596;5.624;2023-06-14T09:37:31;101564.31;;;22.49;32.72
59043;BME280;44826;51.596;5.624;2023-06-14T09:39:57;101562.41;;;22.51;30.51
59043;BME280;44826;51.596;5.624;2023-06-14T09:42:23;101564.13;;;22.52;32.13
59043;BME280;44826;51.596;5.624;2023-06-14T09:44:51;101564.13;;;22.52;32.43
59043;BME280;44826;51.596;5.624;2023-06-14T09:47:18;101556.03;;;22.54;32.08
59043;BME280;44826;51.596;5.624;2023-06-14T09:49:43;101566.25;;;22.60;35.70
59043;BME280;44826;51.596;5.624;2023-06-14T09:52:12;101553.84;;;22.61;32.62
59043;BME280;44826;51.596;5.624;2023-06-14T09:54:41;101566.16;;;22.62;33.91
59043;BME280;44826;51.596;5.624;2023-06-14T09:57:10;101561.72;;;22.62;34.73
59043;BME280;44826;51.596;5.624;2023-06-14T09:59:40;101564.25;;;22.64;32.99
59043;BME280;44826;51.596;5.624;2023-06-14T10:05:05;101559.50;;;22.69;35.42
59043;BME280;44826;51.596;5.624;2023-06-14T10:07:48;101560.97;;;22.73;33.89
59043;BME280;44826;51.596;5.624;2023-06-14T10:10:16;101561.22;;;22.70;34.01
59043;BME280;44826;51.596;5.624;2023-06-14T10:12:42;101557.69;;;22.69;36.72
59043;BME280;44826;51.596;5.624;2023-06-14T10:15:15;101556.84;;;22.69;36.12
59043;BME280;44826;51.596;5.624;2023-06-14T10:17:55;101557.38;;;22.74;34.28
59043;BME280;44826;51.596;5.624;2023-06-14T10:20:34;101549.03;;;22.80;34.70
59043;BME280;44826;51.596;5.624;2023-06-14T10:23:08;101550.72;;;22.81;34.39
59043;BME280;44826;51.596;5.624;2023-06-14T10:25:35;101553.78;;;22.75;32.61
59043;BME280;44826;51.596;5.624;2023-06-14T10:28:17;101553.78;;;22.75;34.42
59043;BME280;44826;51.596;5.624;2023-06-14T10:31:17;101551.88;;;22.77;34.43
59043;BME280;44826;51.596;5.624;2023-06-14T10:33:58;101554.44;;;22.79;35.96
59043;BME280;44826;51.596;5.624;2023-06-14T10:36:30;101551.47;;;22.83;33.96
59043;BME280;44826;51.596;5.624;2023-06-14T10:38:57;101545.22;;;22.84;35.17
59043;BME280;44826;51.596;5.624;2023-06-14T10:41:24;101552.97;;;22.87;35.29
59043;BME280;44826;51.596;5.624;2023-06-14T10:43:52;101555.41;;;22.91;34.43
59043;BME280;44826;51.596;5.624;2023-06-14T10:46:18;101562.53;;;22.90;33.35
59043;BME280;44826;51.596;5.624;2023-06-14T10:48:46;101558.91;;;22.91;33.68
59043;BME280;44826;51.596;5.624;2023-06-14T10:51:19;101558.81;;;22.93;33.29
59043;BME280;44826;51.596;5.624;2023-06-14T10:53:48;101552.56;;;22.94;32.82
59043;BME280;44826;51.596;5.624;2023-06-14T10:56:26;101542.69;;;22.96;34.75
59043;BME280;44826;51.596;5.624;2023-06-14T10:58:53;101551.19;;;23.01;33.72
59043;BME280;44826;51.596;5.624;2023-06-14T11:01:41;101549.38;;;23.01;33.39
59043;BME280;44826;51.596;5.624;2023-06-14T11:04:11;101549.56;;;22.98;33.85
59043;BME280;44826;51.596;5.624;2023-06-14T11:12:01;101561.25;;;22.96;35.53
59043;BME280;44826;51.596;5.624;2023-06-14T11:14:30;101555.75;;;22.99;34.96
59043;BME280;44826;51.596;5.624;2023-06-14T11:16:56;101558.28;;;23.00;34.83
59043;BME280;44826;51.596;5.624;2023-06-14T11:19:21;101553.66;;;23.04;34.11
59043;BME280;44826;51.596;5.624;2023-06-14T11:21:47;101557.25;;;23.03;37.41
59043;BME280;44826;51.596;5.624;2023-06-14T11:24:13;101551.94;;;23.03;35.61
59043;BME280;44826;51.596;5.624;2023-06-14T11:26:39;101563.50;;;23.02;36.18
59043;BME280;44826;51.596;5.624;2023-06-14T11:29:05;101544.06;;;23.01;34.65
59043;BME280;44826;51.596;5.624;2023-06-14T11:31:30;101546.63;;;23.03;34.98
59043;BME280;44826;51.596;5.624;2023-06-14T11:33:58;101545.56;;;23.06;34.66
59043;BME280;44826;51.596;5.624;2023-06-14T11:36:26;101541.34;;;23.03;32.98
59043;BME280;44826;51.596;5.624;2023-06-14T11:39:03;101550.13;;;23.03;34.68
59043;BME280;44826;51.596;5.624;2023-06-14T11:41:42;101545.78;;;23.02;33.23
59043;BME280;44826;51.596;5.624;2023-06-14T11:44:08;101543.75;;;23.06;35.03
59043;BME280;44826;51.596;5.624;2023-06-14T11:46:34;101552.38;;;23.10;34.03
59043;BME280;44826;51.596;5.624;2023-06-14T11:49:01;101538.34;;;23.08;35.44
59043;BME280;44826;51.596;5.624;2023-06-14T11:51:29;101536.47;;;23.10;32.31
59043;BME280;44826;51.596;5.624;2023-06-14T11:53:55;101546.19;;;23.09;37.00
59043;BME280;44826;51.596;5.624;2023-06-14T11:56:20;101546.19;;;23.09;34.17
59043;BME280;44826;51.596;5.624;2023-06-14T11:58:46;101541.84;;;23.08;33.99
59043;BME280;44826;51.596;5.624;2023-06-14T12:01:16;101561.19;;;23.10;34.21
59043;BME280;44826;51.596;5.624;2023-06-14T12:03:49;101546.53;;;23.04;33.42
59043;BME280;44826;51.596;5.624;2023-06-14T12:06:14;101544.94;;;23.02;34.44
59043;BME280;44826;51.596;5.624;2023-06-14T12:08:42;101555.56;;;23.02;34.33
59043;BME280;44826;51.596;5.624;2023-06-14T12:11:12;101535.78;;;23.06;32.83
59043;BME280;44826;51.596;5.624;2023-06-14T12:13:39;101533.88;;;23.08;34.30
59043;BME280;44826;51.596;5.624;2023-06-14T12:16:07;101532.94;;;23.09;33.33
59043;BME280;44826;51.596;5.624;2023-06-14T12:18:34;101542.41;;;23.13;36.15
59043;BME280;44826;51.596;5.624;2023-06-14T12:21:00;101539.75;;;23.13;33.54
59043;BME280;44826;51.596;5.624;2023-06-14T12:23:48;101547.50;;;23.16;33.80
59043;BME280;44826;51.596;5.624;2023-06-14T12:26:19;101546.44;;;23.19;31.93
59043;BME280;44826;51.596;5.624;2023-06-14T12:28:45;101543.91;;;23.17;32.36
59043;BME280;44826;51.596;5.624;2023-06-14T12:31:12;101544.94;;;23.15;32.59
59043;BME280;44826;51.596;5.624;2023-06-14T12:33:38;101545.81;;;23.15;33.60
59043;BME280;44826;51.596;5.624;2023-06-14T12:36:04;101538.59;;;23.17;32.88
59043;BME280;44826;51.596;5.624;2023-06-14T12:38:32;101542.81;;;23.20;32.72
59043;BME280;44826;51.596;5.624;2023-06-14T12:40:57;101535.81;;;23.19;32.45
59043;BME280;44826;51.596;5.624;2023-06-14T12:43:23;101545.59;;;23.18;34.18
59043;BME280;44826;51.596;5.624;2023-06-14T12:45:48;101543.03;;;23.17;32.24
59043;BME280;44826;51.596;5.624;2023-06-14T12:48:14;101544.66;;;23.19;31.93
59043;BME280;44826;51.596;5.624;2023-06-14T12:50:40;101533.94;;;23.21;32.85
59043;BME280;44826;51.596;5.624;2023-06-14T12:53:05;101545.19;;;23.25;33.43
59043;BME280;44826;51.596;5.624;2023-06-14T12:55:32;101538.84;;;23.27;33.16
59043;BME280;44826;51.596;5.624;2023-06-14T12:57:57;101541.38;;;23.29;34.53
59043;BME280;44826;51.596;5.624;2023-06-14T13:00:22;101539.66;;;23.28;33.27
59043;BME280;44826;51.596;5.624;2023-06-14T13:02:50;101540.53;;;23.28;33.79